Time;durP1;ratioP1;P1;durP2;ratioP2;P2;SDS_P1;SDS_P2;PMS_P1;PMS_P2;Temp;Humidity;BMP_temperature;BMP_pressure;BME280_temperature;BME280_humidity;BME280_pressure;Samples;Min_cycle;Max_cycle;Signal;HPM_P1;HPM_P2
2023/06/03 00:00:30;;;;;;;10.98;1.92;;;;;;;11.00;62.21;101127.44;5011093;28;20060;-46
2023/06/03 00:02:57;;;;;;;12.63;3.50;;;;;;;11.00;61.69;101132.59;5012053;28;20440;-47
2023/06/03 00:05:24;;;;;;;7.95;1.88;;;;;;;10.99;62.35;101125.69;5016130;28;20049;-44
2023/06/03 00:07:51;;;;;;;5.93;2.03;;;;;;;10.98;61.33;101126.53;5019007;28;20049;-46
2023/06/03 00:10:17;;;;;;;10.15;2.15;;;;;;;10.97;62.44;101122.19;5018368;28;20042;-46
2023/06/03 00:12:45;;;;;;;4.63;1.60;;;;;;;10.95;62.70;101120.44;5005980;28;20053;-48
2023/06/03 00:15:12;;;;;;;9.35;1.63;;;;;;;10.95;61.80;101123.03;5018101;28;20490;-45
2023/06/03 00:17:39;;;;;;;4.75;1.88;;;;;;;10.94;62.49;101116.97;5017219;28;20073;-48
2023/06/03 00:20:06;;;;;;;7.13;2.17;;;;;;;10.91;61.89;101119.53;5021435;28;20050;-46
2023/06/03 00:22:35;;;;;;;6.07;2.30;;;;;;;10.92;61.97;101113.50;5018227;28;20457;-49
2023/06/03 00:25:03;;;;;;;6.65;2.35;;;;;;;10.88;62.63;101109.97;5023639;28;20041;-47
2023/06/03 00:27:29;;;;;;;6.63;2.13;;;;;;;10.84;63.59;101112.53;5010534;28;20053;-52
2023/06/03 00:29:56;;;;;;;5.65;1.95;;;;;;;10.80;63.36;101104.72;5022544;28;20049;-50
2023/06/03 00:32:23;;;;;;;6.63;3.22;;;;;;;10.82;63.36;101112.50;5013289;28;20050;-48
2023/06/03 00:34:49;;;;;;;6.93;1.90;;;;;;;10.82;62.60;101109.91;5015727;28;20076;-47
2023/06/03 00:37:16;;;;;;;9.23;1.88;;;;;;;10.79;62.31;101108.16;5019655;28;20049;-48
2023/06/03 00:39:42;;;;;;;7.28;1.88;;;;;;;10.78;62.42;101111.56;5024711;28;20045;-48
2023/06/03 00:42:09;;;;;;;12.18;2.75;;;;;;;10.78;63.28;101121.94;5013307;28;20073;-51
2023/06/03 00:44:36;;;;;;;6.10;2.42;;;;;;;10.74;62.49;101114.97;5025518;28;20045;-47
2023/06/03 00:47:03;;;;;;;4.80;1.80;;;;;;;10.72;62.95;101116.69;5014410;28;20061;-51
2023/06/03 00:49:31;;;;;;;8.02;2.63;;;;;;;10.71;62.61;101120.13;5014114;28;20052;-45
2023/06/03 00:51:58;;;;;;;5.43;2.10;;;;;;;10.67;63.13;101116.63;5020286;28;20053;-45
2023/06/03 00:54:26;;;;;;;4.57;1.92;;;;;;;10.65;63.63;101109.69;5013052;28;20049;-46
2023/06/03 00:56:53;;;;;;;13.10;3.40;;;;;;;10.64;62.68;101115.72;5010813;28;20555;-47
2023/06/03 00:59:20;;;;;;;8.48;2.33;;;;;;;10.64;62.93;101115.72;5012382;28;20046;-49
2023/06/03 01:01:47;;;;;;;12.43;2.65;;;;;;;10.64;63.52;101120.91;5003585;28;20069;-47
2023/06/03 01:04:17;;;;;;;7.95;2.78;;;;;;;10.65;62.76;101117.47;5018658;28;20133;-46
2023/06/03 01:09:51;;;;;;;4.53;2.97;;;;;;;10.62;62.88;101114.81;5072792;27;20394;-46
2023/06/03 01:15:00;;;;;;;7.90;2.20;;;;;;;10.63;63.00;101112.25;5073161;27;20375;-47
2023/06/03 01:17:35;;;;;;;6.05;1.70;;;;;;;10.65;62.63;101114.88;5039687;28;20076;-47
2023/06/03 01:20:03;;;;;;;6.05;1.50;;;;;;;10.66;62.66;101111.41;5043320;28;20049;-46
2023/06/03 01:22:36;;;;;;;6.95;1.70;;;;;;;10.66;62.51;101111.41;5036248;28;20041;-47
2023/06/03 01:25:06;;;;;;;6.53;1.65;;;;;;;10.66;62.90;101107.13;5043382;28;20064;-47
2023/06/03 01:27:33;;;;;;;5.95;1.48;;;;;;;10.67;63.09;101107.97;5042915;28;20116;-48
2023/06/03 01:30:00;;;;;;;8.23;1.73;;;;;;;10.67;63.45;101113.16;5043614;28;20059;-48
2023/06/03 01:32:30;;;;;;;9.20;2.03;;;;;;;10.65;63.20;101114.88;5043460;28;20131;-50
2023/06/03 01:34:57;;;;;;;7.25;2.17;;;;;;;10.64;62.77;101115.72;5041989;28;20060;-48
2023/06/03 01:37:26;;;;;;;10.32;1.88;;;;;;;10.64;63.26;101107.94;5043112;28;20038;-48
2023/06/03 01:39:54;;;;;;;11.60;1.98;;;;;;;10.63;63.66;101113.97;5042376;28;20498;-46
2023/06/03 01:42:21;;;;;;;6.18;1.63;;;;;;;10.61;62.87;101102.72;5041111;28;20056;-47
2023/06/03 01:44:48;;;;;;;9.32;1.85;;;;;;;10.59;63.64;101100.09;5042345;28;20057;-44
2023/06/03 01:47:15;;;;;;;5.35;2.30;;;;;;;10.58;62.83;101097.50;5041822;28;20045;-45
2023/06/03 01:49:41;;;;;;;5.05;1.70;;;;;;;10.57;62.64;101101.78;5042443;28;20162;-45
2023/06/03 01:52:08;;;;;;;7.55;2.20;;;;;;;10.56;63.02;101094.00;5040507;28;20049;-50
2023/06/03 01:54:35;;;;;;;6.40;2.33;;;;;;;10.52;63.48;101101.75;5042236;28;20052;-46
2023/06/03 01:57:02;;;;;;;11.40;1.77;;;;;;;10.51;63.49;101102.56;5042067;28;20049;-46
2023/06/03 01:59:28;;;;;;;11.02;2.10;;;;;;;10.48;63.57;101110.31;5043185;28;20139;-46
2023/06/03 02:01:57;;;;;;;4.10;1.58;;;;;;;10.47;63.02;101105.97;5042491;28;20497;-46
2023/06/03 02:04:26;;;;;;;9.80;1.95;;;;;;;10.46;63.66;101109.41;5042398;28;20055;-45
2023/06/03 02:06:55;;;;;;;4.65;1.90;;;;;;;10.45;63.94;101105.09;5042682;28;20083;-44
2023/06/03 02:09:27;;;;;;;6.03;1.67;;;;;;;10.44;63.79;101111.09;5041258;28;20049;-44
2023/06/03 02:11:55;;;;;;;5.28;2.22;;;;;;;10.42;63.41;101112.78;5042460;28;20140;-45
2023/06/03 02:14:25;;;;;;;7.72;1.75;;;;;;;10.41;63.93;101111.03;5040623;28;20099;-48
2023/06/03 02:16:52;;;;;;;;;;;;;;;10.29;64.22;101110.00;5041838;28;20049;-46
2023/06/03 02:19:21;;;;;;;10.23;1.73;;;;;;;10.36;63.51;101107.50;5056926;28;19953;-46
2023/06/03 02:21:47;;;;;;;8.02;2.30;;;;;;;10.35;63.99;101111.81;5039415;28;20064;-44
2023/06/03 02:24:14;;;;;;;5.57;1.50;;;;;;;10.33;64.00;101097.09;5044673;28;20485;-45
2023/06/03 02:26:52;;;;;;;7.22;1.67;;;;;;;10.34;64.39;101104.03;5027076;28;20528;-47
2023/06/03 02:29:22;;;;;;;5.57;1.95;;;;;;;10.28;64.16;101103.09;5028896;28;20099;-46
2023/06/03 02:31:50;;;;;;;12.63;2.13;;;;;;;10.27;63.92;101103.91;5028049;28;20076;-44
2023/06/03 02:34:17;;;;;;;13.55;2.05;;;;;;;10.24;64.65;101093.50;5028680;28;20049;-45
2023/06/03 02:36:45;;;;;;;6.95;1.80;;;;;;;10.23;64.05;101096.94;5028814;28;20072;-47
2023/06/03 02:39:13;;;;;;;5.70;1.80;;;;;;;10.22;64.82;101094.34;5026318;28;20045;-45
2023/06/03 02:41:42;;;;;;;8.18;2.10;;;;;;;10.20;64.09;101096.91;5028933;28;20042;-46
2023/06/03 02:44:10;;;;;;;9.20;2.00;;;;;;;10.16;64.20;101090.81;5028474;28;20088;-47
2023/06/03 02:46:37;;;;;;;6.53;2.20;;;;;;;10.13;64.41;101095.06;5026850;28;20072;-49
2023/06/03 02:49:06;;;;;;;8.30;1.90;;;;;;;10.10;64.97;101095.03;5024666;28;20041;-45
2023/06/03 02:51:33;;;;;;;9.63;2.25;;;;;;;10.09;65.01;101099.31;5023226;28;20053;-45
2023/06/03 02:53:59;;;;;;;10.60;2.10;;;;;;;10.07;65.12;101094.97;5030995;28;20038;-47
2023/06/03 02:56:26;;;;;;;6.13;2.50;;;;;;;10.03;64.97;101094.03;5027466;28;20053;-45
2023/06/03 02:58:54;;;;;;;7.10;1.83;;;;;;;10.02;64.97;101098.34;5027879;28;20136;-46
2023/06/03 03:01:23;;;;;;;13.05;2.17;;;;;;;10.00;64.93;101088.84;5024864;28;20046;-46
2023/06/03 03:03:49;;;;;;;7.10;2.63;;;;;;;9.97;65.53;101091.38;5027439;28;20402;-45
2023/06/03 03:06:19;;;;;;;7.40;1.90;;;;;;;9.95;64.90;101093.94;5027505;28;20060;-48
2023/06/03 03:08:48;;;;;;;5.72;2.05;;;;;;;9.94;65.26;101093.91;5023880;28;20136;-47
2023/06/03 03:11:15;;;;;;;11.82;2.33;;;;;;;9.92;65.70;101091.28;5027489;28;20068;-45
2023/06/03 03:13:42;;;;;;;7.53;2.25;;;;;;;9.90;65.05;101092.97;5027796;28;20160;-44
2023/06/03 03:16:10;;;;;;;10.13;2.10;;;;;;;9.87;65.68;101082.56;5025750;28;20049;-47
2023/06/03 03:18:37;;;;;;;7.40;2.58;;;;;;;9.83;65.97;101085.97;5028405;28;20075;-46
2023/06/03 03:21:04;;;;;;;10.95;2.13;;;;;;;9.82;65.66;101077.31;5024838;28;20053;-46
2023/06/03 03:23:32;;;;;;;6.80;2.40;;;;;;;9.79;65.73;101082.44;5028610;28;20048;-46
2023/06/03 03:26:00;;;;;;;8.07;1.90;;;;;;;9.79;65.72;101085.03;5027780;28;20057;-46
2023/06/03 03:28:28;;;;;;;8.45;2.70;;;;;;;9.79;65.54;101086.75;5027484;28;20057;-47
2023/06/03 03:30:56;;;;;;;6.53;2.10;;;;;;;9.76;65.91;101096.19;5026658;28;20176;-45
2023/06/03 03:33:22;;;;;;;7.20;1.63;;;;;;;9.75;66.09;101093.56;5028074;28;20041;-47
2023/06/03 03:35:50;;;;;;;7.40;3.90;;;;;;;9.73;66.16;101096.13;5025495;28;20061;-45
2023/06/03 03:38:17;;;;;;;8.57;1.95;;;;;;;9.71;66.32;101097.84;5026877;28;20049;-46
2023/06/03 03:40:44;;;;;;;5.88;2.00;;;;;;;9.69;65.86;101094.34;5026802;28;20045;-48
2023/06/03 03:43:16;;;;;;;8.15;1.90;;;;;;;9.66;66.38;101089.09;5026895;28;20073;-50
2023/06/03 03:45:43;;;;;;;4.05;2.25;;;;;;;9.64;66.51;101088.22;5024354;28;20717;-48
2023/06/03 03:48:13;;;;;;;6.85;2.08;;;;;;;9.60;66.05;101089.84;5027204;28;20053;-45
2023/06/03 03:53:25;;;;;;;15.25;2.45;;;;;;;9.57;66.84;101084.66;5019068;28;20412;-45
2023/06/03 03:55:54;;;;;;;8.02;1.83;;;;;;;9.55;67.16;101090.66;5009292;28;20077;-47
2023/06/03 04:01:09;;;;;;;7.88;2.90;;;;;;;9.56;67.19;101089.81;5099161;27;20392;-47
2023/06/03 04:03:40;;;;;;;3.78;2.85;;;;;;;9.55;66.91;101090.66;5059190;28;20040;-45
2023/06/03 04:06:08;;;;;;;8.85;3.50;;;;;;;9.56;67.18;101088.06;5061028;28;20123;-47
2023/06/03 04:08:38;;;;;;;6.63;3.55;;;;;;;9.58;67.37;101090.69;5059933;28;20047;-47
2023/06/03 04:11:08;;;;;;;11.10;3.78;;;;;;;9.58;67.19;101090.69;5089566;28;20055;-46
2023/06/03 04:13:37;;;;;;;11.85;3.20;;;;;;;9.58;67.04;101085.50;5103334;28;20521;-48
2023/06/03 04:16:10;;;;;;;13.80;3.70;;;;;;;9.55;66.89;101090.66;5103239;28;20047;-45
2023/06/03 04:18:40;;;;;;;6.70;3.35;;;;;;;9.52;66.89;101087.16;5103321;28;20044;-47
2023/06/03 04:21:14;;;;;;;7.22;3.15;;;;;;;9.50;67.33;101093.16;5102475;28;20054;-47
2023/06/03 04:23:41;;;;;;;10.02;4.03;;;;;;;9.46;67.42;101088.75;5099258;28;20051;-46
2023/06/03 04:26:09;;;;;;;6.57;2.95;;;;;;;9.42;67.16;101090.41;5110310;28;20048;-48
2023/06/03 04:28:39;;;;;;;5.40;3.13;;;;;;;9.40;67.31;101086.94;5102650;28;20036;-45
2023/06/03 04:31:06;;;;;;;9.65;3.67;;;;;;;9.37;67.69;101082.56;5103592;28;20040;-46
2023/06/03 04:33:33;;;;;;;6.07;2.95;;;;;;;9.39;67.25;101082.56;5102441;28;20039;-46
2023/06/03 04:36:00;;;;;;;6.15;3.40;;;;;;;9.39;67.65;101085.16;5103641;28;20051;-46
2023/06/03 04:38:28;;;;;;;9.60;3.60;;;;;;;9.40;67.27;101086.94;5096839;28;20054;-44
2023/06/03 04:40:55;;;;;;;11.10;3.35;;;;;;;9.43;67.50;101091.28;5102208;28;20044;-47
2023/06/03 04:43:22;;;;;;;9.70;2.97;;;;;;;9.46;67.43;101092.19;5102267;28;20279;-47
2023/06/03 04:45:49;;;;;;;9.70;4.85;;;;;;;9.52;67.28;101097.50;5097299;28;20090;-47
2023/06/03 04:48:16;;;;;;;13.25;4.35;;;;;;;9.57;67.35;101094.13;5080170;28;20139;-47
2023/06/03 04:50:44;;;;;;;8.75;1.88;;;;;;;9.60;66.99;101094.19;5087033;28;20438;-45
2023/06/03 04:53:11;;;;;;;5.70;3.90;;;;;;;9.64;67.50;101101.16;5080721;28;20045;-50
2023/06/03 04:55:44;;;;;;;7.75;3.53;;;;;;;9.68;67.62;101102.94;5082110;28;20052;-47
2023/06/03 04:58:11;;;;;;;9.02;2.90;;;;;;;9.73;67.06;101101.31;5082692;28;20072;-47
2023/06/03 05:00:40;;;;;;;9.07;3.65;;;;;;;9.77;67.62;101112.59;5064115;28;20055;-50
2023/06/03 05:03:09;;;;;;;9.45;4.13;;;;;;;9.80;67.33;101104.91;5081695;28;20076;-45
2023/06/03 05:05:42;;;;;;;5.30;3.22;;;;;;;9.82;67.14;101098.00;5082811;28;20408;-46
2023/06/03 05:08:10;;;;;;;12.25;4.15;;;;;;;9.88;67.80;101107.59;5081882;28;20049;-44
2023/06/03 05:10:37;;;;;;;9.05;3.90;;;;;;;9.92;67.32;101100.78;5076876;28;20072;-47
2023/06/03 05:13:06;;;;;;;11.38;3.42;;;;;;;9.95;67.33;101104.28;5068504;28;20078;-46
2023/06/03 05:15:33;;;;;;;7.95;3.67;;;;;;;9.99;67.93;101108.66;5068438;28;20072;-45
2023/06/03 05:18:01;;;;;;;8.98;3.70;;;;;;;10.03;67.67;101105.28;5068883;28;20060;-48
2023/06/03 05:20:30;;;;;;;6.10;3.53;;;;;;;10.09;67.19;101108.78;5068674;28;20059;-45
2023/06/03 05:22:57;;;;;;;16.48;3.53;;;;;;;10.10;67.50;101107.97;5067924;28;20051;-44
2023/06/03 05:25:23;;;;;;;7.78;4.03;;;;;;;10.17;67.18;101109.81;5065529;28;20044;-45
2023/06/03 05:27:50;;;;;;;5.90;3.60;;;;;;;10.23;67.16;101102.13;5068451;28;20106;-44
2023/06/03 05:30:29;;;;;;;15.02;3.90;;;;;;;10.29;67.45;101101.34;5067626;28;20570;-49
2023/06/03 05:32:56;;;;;;;9.00;3.75;;;;;;;10.32;67.46;101095.34;5069011;28;20050;-46
2023/06/03 05:35:23;;;;;;;8.20;3.50;;;;;;;10.35;67.16;101100.56;5067351;28;20049;-47
2023/06/03 05:37:49;;;;;;;8.18;3.60;;;;;;;10.40;67.14;101104.09;5074354;28;20544;-46
2023/06/03 05:40:16;;;;;;;4.82;2.72;;;;;;;10.44;67.87;101098.16;5067307;28;20048;-45
2023/06/03 05:42:44;;;;;;;4.40;1.85;;;;;;;10.51;67.21;101093.94;5068244;28;20630;-47
2023/06/03 05:45:11;;;;;;;9.90;4.20;;;;;;;10.60;67.21;101095.81;5065440;28;20403;-47
2023/06/03 05:47:37;;;;;;;6.30;3.38;;;;;;;10.66;67.28;101101.06;5068613;28;20044;-49
2023/06/03 05:50:05;;;;;;;5.07;3.42;;;;;;;10.70;67.49;101095.06;5067566;28;20102;-46
2023/06/03 05:52:31;;;;;;;10.93;4.18;;;;;;;10.78;66.92;101098.63;5067596;28;20044;-45
2023/06/03 05:54:58;;;;;;;8.82;3.95;;;;;;;10.79;67.79;101097.78;5066915;28;20048;-46
2023/06/03 05:57:25;;;;;;;10.15;3.78;;;;;;;10.89;66.41;101097.91;5070013;28;20044;-46
2023/06/03 05:59:51;;;;;;;5.65;3.47;;;;;;;10.96;66.85;101104.91;5067127;28;20078;-45
2023/06/03 06:02:19;;;;;;;11.55;4.47;;;;;;;11.03;67.26;101106.72;5067530;28;20044;-50
2023/06/03 06:04:46;;;;;;;3.58;1.88;;;;;;;11.16;67.42;101096.50;5065493;28;20470;-44
2023/06/03 06:07:12;;;;;;;7.32;3.28;;;;;;;11.31;67.55;101099.28;5064777;28;20048;-48
2023/06/03 06:09:39;;;;;;;10.50;5.47;;;;;;;11.41;67.24;101101.94;5067583;28;20037;-47
2023/06/03 06:12:06;;;;;;;7.65;3.83;;;;;;;11.49;66.86;101102.94;5067186;28;20457;-48
2023/06/03 06:14:33;;;;;;;10.25;4.07;;;;;;;11.62;66.66;101105.66;5067910;28;20062;-45
2023/06/03 06:16:59;;;;;;;9.10;3.85;;;;;;;11.73;66.44;101097.94;5066791;28;20053;-46
2023/06/03 06:19:26;;;;;;;6.90;3.40;;;;;;;11.78;65.82;101101.44;5067188;28;20041;-47
2023/06/03 06:21:53;;;;;;;7.88;3.53;;;;;;;11.82;65.82;101104.09;5070154;28;20051;-47
2023/06/03 06:24:19;;;;;;;7.20;3.67;;;;;;;11.91;66.16;101102.44;5066524;28;20056;-46
2023/06/03 06:26:49;;;;;;;10.82;3.40;;;;;;;11.97;65.26;101102.50;5067716;28;20068;-45
2023/06/03 06:29:16;;;;;;;5.90;3.83;;;;;;;12.00;65.85;101105.13;5066875;28;20044;-48
2023/06/03 06:31:44;;;;;;;5.78;3.38;;;;;;;12.03;65.27;101096.50;5064294;28;20052;-47
2023/06/03 06:34:17;;;;;;;11.02;4.03;;;;;;;12.04;64.46;101093.91;5064692;28;20037;-45
2023/06/03 06:36:49;;;;;;;7.80;3.63;;;;;;;12.11;64.30;101099.16;5066747;28;20056;-48
2023/06/03 06:42:11;;;;;;;8.45;2.22;;;;;;;12.20;64.71;101101.84;5076776;27;20405;-46
2023/06/03 06:44:46;;;;;;;13.32;2.30;;;;;;;12.30;65.66;101095.00;5071155;28;20049;-45
2023/06/03 06:47:21;;;;;;;6.68;2.03;;;;;;;12.43;65.02;101101.16;5021733;28;20049;-45
2023/06/03 06:49:49;;;;;;;7.13;2.20;;;;;;;12.60;64.84;101102.09;5024495;28;20128;-45
2023/06/03 06:52:16;;;;;;;3.38;1.70;;;;;;;12.81;64.63;101102.22;5019081;28;20053;-46
2023/06/03 06:54:43;;;;;;;11.23;2.35;;;;;;;13.01;64.47;101098.84;5015294;28;20394;-44
2023/06/03 06:57:10;;;;;;;7.93;2.25;;;;;;;13.28;64.33;101100.69;5024132;28;20068;-47
2023/06/03 06:59:37;;;;;;;8.85;2.35;;;;;;;13.57;64.45;101094.69;5025393;28;20124;-45
2023/06/03 07:02:03;;;;;;;7.32;1.70;;;;;;;13.82;63.38;101097.31;5019907;28;20057;-47
2023/06/03 07:04:30;;;;;;;8.02;1.83;;;;;;;14.11;63.70;101101.66;5030935;28;20052;-46
2023/06/03 07:06:57;;;;;;;4.22;1.75;;;;;;;14.35;62.43;101102.50;5013964;28;20050;-46
2023/06/03 07:09:23;;;;;;;9.43;1.70;;;;;;;14.50;61.77;101098.13;5026714;28;20103;-46
2023/06/03 07:11:50;;;;;;;5.38;1.80;;;;;;;14.57;61.05;101099.88;5011400;28;20473;-50
2023/06/03 07:14:17;;;;;;;6.72;1.60;;;;;;;14.53;61.25;101098.13;5027381;28;20088;-45
2023/06/03 07:16:43;;;;;;;2.78;1.10;;;;;;;14.44;60.94;101093.81;5010695;28;20108;-47
2023/06/03 07:19:10;;;;;;;6.70;1.80;;;;;;;14.40;60.58;101098.13;5016727;28;20045;-47
2023/06/03 07:21:37;;;;;;;6.57;2.10;;;;;;;14.55;60.45;101101.59;5021667;28;20494;-46
2023/06/03 07:24:06;;;;;;;8.95;1.77;;;;;;;14.82;60.75;101094.59;5022028;28;20086;-47
2023/06/03 07:26:34;;;;;;;8.10;1.90;;;;;;;15.11;60.41;101106.66;5022879;28;20054;-47
2023/06/03 07:29:01;;;;;;;5.35;1.52;;;;;;;15.19;59.44;101105.75;5018640;28;20056;-47
2023/06/03 07:31:30;;;;;;;6.10;2.13;;;;;;;15.09;59.13;101102.28;5009025;28;20093;-47
2023/06/03 07:33:57;;;;;;;5.10;1.63;;;;;;;15.02;58.82;101109.28;5018804;28;20057;-44
2023/06/03 07:36:26;;;;;;;7.03;1.50;;;;;;;14.95;59.08;101111.06;5020257;28;20046;-47
2023/06/03 07:39:17;;;;;;;9.40;1.38;;;;;;;14.96;59.03;101111.94;5015621;28;20050;-52
2023/06/03 07:41:50;;;;;;;5.32;1.52;;;;;;;14.96;58.83;101104.13;5028164;28;20049;-47
2023/06/03 07:44:48;;;;;;;7.72;1.83;;;;;;;14.98;59.32;101104.97;5018166;28;20809;-48
2023/06/03 07:47:17;;;;;;;4.35;1.63;;;;;;;15.19;58.84;101108.38;5019060;28;20647;-46
2023/06/03 07:49:45;;;;;;;6.78;1.27;;;;;;;15.50;58.88;101108.19;5014982;28;20042;-49
2023/06/03 07:52:17;;;;;;;4.05;1.67;;;;;;;15.86;58.91;101111.41;5007487;28;20060;-50
2023/06/03 07:54:43;;;;;;;4.20;1.27;;;;;;;16.23;58.21;101106.78;4997991;28;20050;-46
2023/06/03 07:57:14;;;;;;;10.63;2.15;;;;;;;16.53;57.41;101117.81;5004585;28;20052;-47
2023/06/03 08:02:25;;;;;;;9.57;2.80;;;;;;;17.08;57.91;101120.72;5022947;27;20398;-46
2023/06/03 08:04:55;;;;;;;7.25;3.20;;;;;;;17.36;56.26;101120.34;5022809;28;20120;-47
2023/06/03 08:07:24;;;;;;;7.25;1.83;;;;;;;17.61;55.83;101125.22;5022736;28;20444;-46
2023/06/03 08:09:51;;;;;;;4.55;2.70;;;;;;;17.86;56.09;101122.22;5023179;28;20057;-48
2023/06/03 08:12:25;;;;;;;6.40;2.75;;;;;;;18.07;54.85;101125.41;5022266;28;20056;-47
2023/06/03 08:14:51;;;;;;;6.25;2.90;;;;;;;18.30;54.74;101118.94;5023695;28;20123;-47
2023/06/03 08:17:33;;;;;;;5.07;3.03;;;;;;;18.37;53.60;101110.91;5022789;28;20093;-47
2023/06/03 08:20:06;;;;;;;6.50;2.83;;;;;;;18.46;53.48;101117.75;5019248;28;20053;-46
2023/06/03 08:25:09;;;;;;;3.60;1.10;;;;;;;18.71;52.98;101119.03;5042197;27;20409;-46
2023/06/03 08:27:37;;;;;;;5.75;1.70;;;;;;;18.68;51.84;101114.69;5005373;28;20554;-49
2023/06/03 08:30:04;;;;;;;4.72;1.67;;;;;;;18.74;52.90;101114.56;5003778;28;20105;-46
2023/06/03 08:32:33;;;;;;;4.85;1.50;;;;;;;18.95;53.04;101116.81;5003916;28;20054;-46
2023/06/03 08:35:00;;;;;;;5.03;1.58;;;;;;;19.13;52.21;101119.09;5002496;28;20123;-47
2023/06/03 08:37:28;;;;;;;4.55;1.95;;;;;;;19.25;51.17;101109.22;5008255;28;20050;-49
2023/06/03 08:39:55;;;;;;;3.30;1.15;;;;;;;19.29;51.12;101105.63;5007805;28;20053;-48
2023/06/03 08:42:23;;;;;;;4.38;2.05;;;;;;;19.45;51.30;101106.09;5004595;28;20181;-49
2023/06/03 08:45:03;;;;;;;6.35;1.90;;;;;;;19.58;50.24;101111.06;5003976;28;20046;-52
2023/06/03 08:47:43;;;;;;;4.80;1.02;;;;;;;19.71;50.82;101104.63;5004083;28;20121;-51
2023/06/03 08:50:11;;;;;;;4.60;2.25;;;;;;;19.86;49.80;101110.44;5003445;28;20078;-48
2023/06/03 08:52:38;;;;;;;4.60;1.92;;;;;;;20.00;49.75;101113.59;5001480;28;20669;-52
2023/06/03 08:55:06;;;;;;;3.13;1.05;;;;;;;20.06;49.36;101109.09;4999233;28;20056;-52
2023/06/03 08:57:38;;;;;;;3.83;1.42;;;;;;;20.19;49.91;101113.13;5005205;28;20069;-48
2023/06/03 09:00:06;;;;;;;6.35;2.25;;;;;;;20.28;49.34;101098.88;5012449;28;20115;-49
2023/06/03 09:02:34;;;;;;;5.47;2.20;;;;;;;20.41;48.66;101105.50;5003766;28;20046;-49
2023/06/03 09:05:01;;;;;;;3.67;1.27;;;;;;;20.63;49.17;101102.28;5000312;28;20054;-49
2023/06/03 09:07:30;;;;;;;9.15;1.83;;;;;;;20.85;48.59;101103.44;5002276;28;20068;-48
2023/06/03 09:09:58;;;;;;;3.75;1.65;;;;;;;21.03;47.88;101100.31;5002395;28;20486;-48
2023/06/03 09:12:26;;;;;;;6.18;1.25;;;;;;;21.05;47.53;101101.13;5002949;28;20046;-52
2023/06/03 09:14:54;;;;;;;3.90;1.63;;;;;;;21.15;47.47;101103.50;5011178;28;20057;-50
2023/06/03 09:17:24;;;;;;;4.65;1.85;;;;;;;21.22;46.97;101099.75;5002616;28;20061;-50
2023/06/03 09:19:52;;;;;;;5.45;2.58;;;;;;;21.24;46.85;101103.19;4994046;28;20546;-47
2023/06/03 09:22:19;;;;;;;4.85;1.05;;;;;;;21.38;46.90;101104.56;5000929;28;20057;-49
2023/06/03 09:24:47;;;;;;;4.25;1.30;;;;;;;21.56;47.08;101103.09;5001593;28;20046;-48
2023/06/03 09:27:13;;;;;;;8.35;1.77;;;;;;;21.62;45.71;101102.91;5008215;28;20054;-49
2023/06/03 09:29:41;;;;;;;5.68;1.88;;;;;;;21.68;46.00;101107.09;5006909;28;20046;-51
2023/06/03 09:32:08;;;;;;;4.80;1.50;;;;;;;21.76;45.95;101102.50;5003253;28;20050;-49
2023/06/03 09:34:36;;;;;;;3.60;1.20;;;;;;;21.83;46.56;101096.09;5012815;28;20056;-49
2023/06/03 09:37:08;;;;;;;8.65;1.40;;;;;;;21.95;45.21;101102.72;4989810;28;20054;-51
2023/06/03 09:39:36;;;;;;;7.95;2.83;;;;;;;22.11;46.32;101104.84;4988679;28;20058;-52
2023/06/03 09:42:03;;;;;;;6.55;1.52;;;;;;;22.31;45.59;101090.97;4989253;28;20050;-50
2023/06/03 09:47:13;;;;;;;2.75;1.10;;;;;;;22.54;45.10;101091.91;5022483;27;20889;-50
2023/06/03 09:50:01;;;;;;;5.68;1.30;;;;;;;22.65;44.63;101094.19;4996779;28;20104;-51
2023/06/03 09:52:36;;;;;;;2.55;1.10;;;;;;;22.80;44.12;101098.00;4996656;28;20053;-50
2023/06/03 09:55:05;;;;;;;5.18;1.77;;;;;;;22.73;43.57;101091.28;4995188;28;20441;-50
2023/06/03 09:57:32;;;;;;;2.92;1.00;;;;;;;22.79;43.86;101096.31;4999826;28;20410;-50
2023/06/03 10:00:15;;;;;;;4.25;1.63;;;;;;;22.91;44.14;101091.47;5003110;28;20076;-52
2023/06/03 10:02:44;;;;;;;4.68;1.90;;;;;;;23.02;42.90;101093.69;4995430;28;20097;-51
2023/06/03 10:05:28;;;;;;;15.18;1.33;;;;;;;23.10;43.28;101094.28;4999148;28;20145;-51
2023/06/03 10:07:57;;;;;;;8.20;1.38;;;;;;;23.33;43.65;101093.34;4999522;28;20045;-50
2023/06/03 10:10:28;;;;;;;3.28;1.00;;;;;;;23.43;43.31;101087.72;4998858;28;20079;-51
2023/06/03 10:12:55;;;;;;;6.68;1.23;;;;;;;23.52;43.36;101079.44;5006593;28;20046;-50
2023/06/03 10:15:39;;;;;;;5.15;1.27;;;;;;;23.63;41.64;101089.56;4997537;28;20054;-50
2023/06/03 10:18:07;;;;;;;2.42;0.82;;;;;;;23.68;42.67;101084.09;4985124;28;20104;-51
2023/06/03 10:20:36;;;;;;;2.45;1.20;;;;;;;23.70;42.15;101072.53;4997170;28;20426;-53
2023/06/03 10:23:04;;;;;;;5.72;1.20;;;;;;;23.68;42.55;101078.81;4994285;28;20048;-50
2023/06/03 10:25:40;;;;;;;3.97;1.02;;;;;;;23.69;41.92;101080.50;5000912;28;20046;-51
2023/06/03 10:28:07;;;;;;;6.97;1.80;;;;;;;23.72;42.90;101075.97;4993489;28;20073;-50
2023/06/03 10:30:35;;;;;;;3.35;1.30;;;;;;;23.86;42.98;101083.31;4998026;28;20046;-51
2023/06/03 10:33:04;;;;;;;4.72;1.20;;;;;;;23.99;41.65;101078.38;4994372;28;20145;-50
2023/06/03 10:35:32;;;;;;;5.72;1.67;;;;;;;23.96;40.97;101088.22;4996536;28;20482;-48
2023/06/03 10:38:00;;;;;;;4.35;1.10;;;;;;;23.96;41.47;101080.28;5001607;28;20477;-47
2023/06/03 10:40:28;;;;;;;3.53;1.35;;;;;;;24.05;41.12;101082.53;4994613;28;20065;-48
2023/06/03 10:42:56;;;;;;;4.38;0.88;;;;;;;23.97;40.12;101089.94;5002045;28;20044;-50
2023/06/03 10:45:26;;;;;;;3.97;1.42;;;;;;;23.92;40.09;101089.28;4994144;28;20046;-54
2023/06/03 10:48:05;;;;;;;5.00;1.20;;;;;;;23.78;38.70;101085.44;4995230;28;20045;-52
2023/06/03 10:53:27;;;;;;;7.18;1.48;;;;;;;23.91;40.41;101084.91;5021862;28;21153;-52
2023/06/03 10:56:26;;;;;;;3.22;1.65;;;;;;;23.92;40.83;101079.56;5002658;28;20053;-51
2023/06/03 10:59:04;;;;;;;3.30;1.35;;;;;;;23.98;40.58;101081.09;5010103;28;20050;-52
2023/06/03 11:02:00;;;;;;;5.38;1.40;;;;;;;23.94;40.91;101084.78;5015842;28;20042;-53
2023/06/03 11:04:30;;;;;;;4.15;1.75;;;;;;;24.00;40.70;101068.63;5013491;28;20054;-51
2023/06/03 11:06:57;;;;;;;3.28;1.20;;;;;;;24.06;41.01;101078.97;5002289;28;20038;-49
2023/06/03 11:12:10;;;;;;;4.13;1.52;;;;;;;24.22;40.83;101079.16;5055628;27;20752;-50
2023/06/03 11:17:15;;;;;;;4.88;1.50;;;;;;;24.44;40.67;101077.34;5044405;27;20396;-50
2023/06/03 11:22:41;;;;;;;3.22;0.93;;;;;;;24.38;40.33;101062.59;5041943;28;20746;-52
2023/06/03 11:25:25;;;;;;;3.58;1.23;;;;;;;24.34;40.14;101067.19;5021130;28;20752;-52
2023/06/03 11:27:51;;;;;;;5.32;1.50;;;;;;;24.28;40.44;101067.44;5020811;28;20111;-49
2023/06/03 11:30:18;;;;;;;2.97;1.00;;;;;;;24.19;40.20;101070.50;5018553;28;20137;-50
2023/06/03 11:33:09;;;;;;;6.80;1.13;;;;;;;24.07;40.05;101070.09;5026434;28;20137;-50
2023/06/03 11:35:36;;;;;;;6.88;1.27;;;;;;;24.16;40.47;101068.00;5017365;28;20061;-51
2023/06/03 11:38:02;;;;;;;4.25;1.20;;;;;;;24.19;40.74;101068.75;5022636;28;20532;-51
2023/06/03 11:40:44;;;;;;;4.63;1.40;;;;;;;24.19;40.61;101062.56;5022381;28;20041;-51
2023/06/03 11:43:11;;;;;;;4.57;1.77;;;;;;;24.25;40.40;101059.66;5017456;28;20418;-49
2023/06/03 11:45:38;;;;;;;4.47;1.15;;;;;;;24.19;40.36;101062.56;5021672;28;20406;-49
2023/06/03 11:48:10;;;;;;;5.75;0.90;;;;;;;24.11;40.36;101066.41;5022906;28;20049;-49
2023/06/03 11:50:54;;;;;;;5.47;1.20;;;;;;;24.08;40.35;101055.91;5020885;28;20042;-51
2023/06/03 11:56:08;;;;;;;4.93;2.50;;;;;;;24.15;40.52;101064.50;5048986;27;20900;-48
2023/06/03 11:58:40;;;;;;;7.07;3.63;;;;;;;24.31;40.49;101058.53;5045816;28;20041;-51
2023/06/03 12:01:16;;;;;;;4.10;2.50;;;;;;;24.32;40.71;101055.78;5038542;28;20056;-47
2023/06/03 12:06:36;;;;;;;5.20;1.45;;;;;;;24.39;40.77;101049.28;5070591;27;20393;-48
2023/06/03 12:09:03;;;;;;;6.15;1.05;;;;;;;24.38;40.17;101041.41;5025694;28;20128;-51
2023/06/03 12:11:33;;;;;;;3.22;1.55;;;;;;;24.42;40.47;101056.28;5020389;28;20092;-47
2023/06/03 12:14:00;;;;;;;6.13;1.27;;;;;;;24.38;40.64;101047.59;5037791;28;20490;-46